Jiulong, China
Current Conditions -  °F | °C
As of 12:00 PM on Friday 19 Dec 2014 (Local Time) from ZUUU Reporting Station
Haze Haze  
Wind Chill: 48°   Ceiling: Unl
Heat Index: 48°   Visibility: 1.8mi
Dew Point: 32°   Wind: 2mph
Humidity: 54%   Direction: NA
Pressure: 30.36"   Gusts: NA
Location:  29°N, 101.5°E
Report Text: ZUUU 190400Z VRB01MPS 3000 HZ NSC 09/00 Q1028 NOSIG
Loading
Personal Weather Stations






























Interactive Weather Map New forecast layout! Learn more

10-Day Weather Forecast

Advertisements
Track Severe Weather on mobile